Time;durP1;ratioP1;P1;durP2;ratioP2;P2;SDS_P1;SDS_P2;PMS_P1;PMS_P2;Temp;Humidity;BMP_temperature;BMP_pressure;BME280_temperature;BME280_humidity;BME280_pressure;Samples;Min_cycle;Max_cycle;Signal;HPM_P1;HPM_P2
2022/09/03 00:02:44;;;;;;;3.83;1.40;;;;;;;15.02;70.30;93721.59;4785785;30;20260;-92
2022/09/03 00:05:48;;;;;;;2.67;1.60;;;;;;;15.04;68.74;93715.34;4832184;29;20237;-94
2022/09/03 00:09:10;;;;;;;2.73;1.40;;;;;;;15.04;68.92;93715.34;4833494;29;20212;-90
2022/09/03 00:12:09;;;;;;;1.67;1.57;;;;;;;14.83;71.27;93711.47;4842464;29;20210;-93
2022/09/03 00:15:03;;;;;;;2.67;1.40;;;;;;;14.64;72.47;93716.78;4835395;29;20234;-93
2022/09/03 00:17:57;;;;;;;1.73;1.63;;;;;;;14.60;72.71;93713.75;4838753;29;20294;-92
2022/09/03 00:20:49;;;;;;;4.33;1.57;;;;;;;14.64;73.35;93728.78;4825158;29;20215;-93
2022/09/03 00:23:39;;;;;;;2.33;2.13;;;;;;;14.82;72.22;93726.94;4818766;29;20202;-93
2022/09/03 00:26:30;;;;;;;2.60;1.53;;;;;;;14.71;72.43;93710.84;4828352;29;20179;-93
2022/09/03 00:29:19;;;;;;;1.73;1.63;;;;;;;14.71;71.90;93710.09;4839214;29;20216;-94
2022/09/03 00:32:16;;;;;;;2.00;1.63;;;;;;;14.44;74.30;93708.00;4824742;29;20215;-93
2022/09/03 00:35:05;;;;;;;3.90;2.00;;;;;;;14.60;72.83;93708.84;4825523;29;20217;-92
2022/09/03 00:37:53;;;;;;;1.60;1.50;;;;;;;14.72;72.48;93705.94;4813664;29;20222;-95
2022/09/03 00:41:05;;;;;;;1.97;1.70;;;;;;;14.66;75.25;93714.81;4837713;29;20201;-94
2022/09/03 00:44:21;;;;;;;2.60;1.80;;;;;;;14.47;75.78;93721.56;4811079;29;20204;-93
2022/09/03 00:47:23;;;;;;;2.43;1.77;;;;;;;14.33;77.34;93728.47;4827399;29;20210;-92
2022/09/03 00:50:30;;;;;;;4.53;1.70;;;;;;;14.27;76.24;93702.78;4826603;29;20203;-92
2022/09/03 00:53:21;;;;;;;1.70;1.60;;;;;;;14.27;77.99;93722.53;4850077;29;20254;-93
2022/09/03 00:56:52;;;;;;;4.27;1.70;;;;;;;13.99;79.49;93719.63;4828060;29;20258;-92
2022/09/03 01:00:15;;;;;;;4.73;1.77;;;;;;;13.96;80.18;93729.31;4805337;29;20314;-92
2022/09/03 01:04:06;;;;;;;2.20;1.90;;;;;;;13.84;81.15;93725.81;4838110;29;20199;-94
2022/09/03 01:07:54;;;;;;;3.17;1.70;;;;;;;13.71;81.51;93718.03;4829586;29;20203;-91
2022/09/03 01:11:16;;;;;;;5.70;1.80;;;;;;;13.57;82.34;93720.06;4765748;30;20204;-91
2022/09/03 01:14:38;;;;;;;1.77;1.57;;;;;;;13.58;82.68;93715.88;4768911;29;20212;-92
2022/09/03 01:17:58;;;;;;;2.40;2.03;;;;;;;13.70;82.00;93710.97;4837157;29;20261;-91
2022/09/03 01:21:35;;;;;;;3.23;2.00;;;;;;;13.77;80.54;93707.13;4849493;29;20214;-91
2022/09/03 01:24:45;;;;;;;1.70;1.60;;;;;;;13.46;83.94;93706.75;4834938;29;20202;-94
2022/09/03 01:28:12;;;;;;;2.23;2.00;;;;;;;13.36;85.47;93709.72;4831927;29;20270;-92
2022/09/03 01:31:39;;;;;;;2.00;1.77;;;;;;;13.20;86.10;93715.16;4851051;29;20210;-91
2022/09/03 01:35:25;;;;;;;3.30;1.90;;;;;;;13.13;86.42;93724.59;4834088;29;20266;-92
2022/09/03 01:39:28;;;;;;;2.13;1.73;;;;;;;12.96;87.09;93722.16;4834705;29;20210;-90
2022/09/03 01:42:48;;;;;;;3.47;2.03;;;;;;;12.95;86.91;93709.44;4837735;29;20210;-91
2022/09/03 01:46:25;;;;;;;2.30;2.03;;;;;;;12.98;86.98;93713.81;4843014;29;20224;-91
2022/09/03 01:49:50;;;;;;;8.63;2.00;;;;;;;12.96;87.29;93719.34;4839166;29;20663;-90
2022/09/03 01:53:26;;;;;;;4.00;1.80;;;;;;;12.92;87.81;93713.47;4845088;29;20289;-90
2022/09/03 01:56:13;;;;;;;2.27;2.03;;;;;;;12.77;87.90;93691.50;4813954;29;20780;-92
2022/09/03 01:59:39;;;;;;;4.47;2.10;;;;;;;12.86;88.12;93708.22;4838101;29;20271;-91
2022/09/03 02:02:42;;;;;;;3.87;2.17;;;;;;;12.85;87.68;93708.81;4845503;29;20230;-91
2022/09/03 02:05:34;;;;;;;8.40;2.50;;;;;;;12.77;88.03;93709.09;4835338;29;20207;-89
2022/09/03 02:08:36;;;;;;;2.33;2.13;;;;;;;12.67;87.96;93696.50;4821552;29;20191;-90
2022/09/03 02:11:32;;;;;;;2.80;2.27;;;;;;;12.49;88.48;93684.91;4840465;29;20206;-92
2022/09/03 02:14:36;;;;;;;4.13;2.00;;;;;;;12.45;88.33;93679.78;4839618;29;20648;-90
2022/09/03 02:17:25;;;;;;;2.63;2.43;;;;;;;12.57;88.85;93714.22;4843427;29;20237;-91
2022/09/03 02:20:20;;;;;;;3.70;2.50;;;;;;;12.25;89.06;93692.59;4842457;29;20226;-91
2022/09/03 02:23:08;;;;;;;5.93;2.03;;;;;;;12.18;90.00;93690.75;4849661;29;20214;-90
2022/09/03 02:26:29;;;;;;;3.10;2.90;;;;;;;12.38;91.73;93694.78;4848958;29;20225;-89
2022/09/03 02:29:23;;;;;;;3.27;2.10;;;;;;;12.41;90.22;93699.19;4845724;29;20222;-90
2022/09/03 02:32:35;;;;;;;3.93;2.20;;;;;;;12.27;90.49;93695.53;4849018;29;20206;-90
2022/09/03 02:35:57;;;;;;;4.17;2.50;;;;;;;12.25;91.72;93715.06;4854794;29;20213;-90
2022/09/03 02:39:08;;;;;;;3.87;2.50;;;;;;;11.77;93.24;93684.69;4846278;29;20214;-89
2022/09/03 02:42:17;;;;;;;2.93;2.60;;;;;;;11.66;97.96;93702.94;4846521;29;20250;-89
2022/09/03 02:51:22;;;;;;;3.43;2.33;;;;;;;11.69;96.92;93690.50;4842756;29;20213;-91
2022/09/03 09:16:30;;;;;;;1.60;1.50;;;;;;;22.39;60.69;93861.16;4877256;29;20259;-92
2022/09/03 09:19:53;;;;;;;3.67;1.63;;;;;;;22.55;58.23;93853.00;4850468;29;20300;-90
2022/09/03 09:22:45;;;;;;;1.40;1.30;;;;;;;22.77;56.47;93850.03;4846719;29;20213;-92
2022/09/03 09:25:31;;;;;;;1.85;1.42;;;;;;;22.41;60.36;93854.75;4851636;29;20269;-90
2022/09/03 09:28:23;;;;;;;1.85;1.65;;;;;;;23.29;58.04;93856.25;4849205;29;20220;-92
2022/09/03 09:31:14;;;;;;;1.70;1.60;;;;;;;22.75;58.12;93858.53;4848452;29;20225;-92
2022/09/03 09:34:05;;;;;;;2.33;1.50;;;;;;;22.42;59.49;93844.81;4836691;29;20210;-93
2022/09/03 09:36:52;;;;;;;1.83;1.65;;;;;;;22.32;61.55;93847.41;4858055;29;20310;-91
2022/09/03 09:39:36;;;;;;;1.60;1.50;;;;;;;22.23;59.40;93845.72;4869257;29;20216;-92
2022/09/03 09:42:22;;;;;;;1.67;1.50;;;;;;;22.09;58.89;93863.22;4856872;29;20301;-91
2022/09/03 09:45:10;;;;;;;3.00;1.60;;;;;;;21.97;59.71;93849.31;4860371;29;20205;-91
2022/09/03 09:47:56;;;;;;;1.70;1.60;;;;;;;22.51;56.34;93849.34;4864698;29;20297;-92
2022/09/03 09:50:41;;;;;;;1.30;1.20;;;;;;;21.93;58.30;93857.75;4858860;29;20283;-91
2022/09/03 09:53:26;;;;;;;1.73;1.23;;;;;;;23.82;55.15;93856.69;4857551;29;20621;-92
2022/09/03 09:56:24;;;;;;;1.38;1.20;;;;;;;23.25;56.05;93861.88;4862400;29;20223;-93
2022/09/03 09:59:10;;;;;;;2.58;1.38;;;;;;;23.19;58.19;93863.88;4847741;29;20224;-92
2022/09/03 10:02:08;;;;;;;1.20;1.10;;;;;;;23.55;54.79;93859.00;4845052;29;20215;-91
2022/09/03 10:05:21;;;;;;;5.07;1.35;;;;;;;23.95;51.30;93852.63;4854052;29;20304;-90
2022/09/03 10:08:18;;;;;;;1.10;1.10;;;;;;;23.74;52.11;93852.25;4843970;29;20216;-92
2022/09/03 10:11:02;;;;;;;1.90;1.20;;;;;;;23.49;55.34;93844.56;4844588;29;20391;-90
2022/09/03 10:13:48;;;;;;;1.75;1.42;;;;;;;24.27;51.49;93839.00;4843038;29;21133;-92
2022/09/03 10:16:47;;;;;;;2.72;1.30;;;;;;;24.68;51.99;93836.84;4854205;29;20212;-93
2022/09/03 10:20:25;;;;;;;1.17;1.08;;;;;;;24.75;48.80;93836.25;4844588;29;20251;-93
2022/09/03 10:23:14;;;;;;;1.30;0.93;;;;;;;24.96;47.04;93837.34;4845038;29;20250;-94
2022/09/03 10:26:13;;;;;;;1.10;1.00;;;;;;;25.32;46.33;93849.38;4840412;29;20225;-92
2022/09/03 10:29:07;;;;;;;1.25;0.88;;;;;;;25.00;45.72;93843.13;4850006;29;20258;-94
2022/09/03 10:31:57;;;;;;;1.17;1.10;;;;;;;24.42;47.33;93829.25;4833192;29;20252;-95
2022/09/03 10:34:57;;;;;;;1.77;1.10;;;;;;;24.00;48.78;93839.88;4847114;29;20325;-94
2022/09/03 10:38:09;;;;;;;1.30;1.20;;;;;;;24.38;48.68;93834.88;4841261;29;20272;-92
2022/09/03 10:41:15;;;;;;;0.70;0.70;;;;;;;23.77;51.31;93836.56;4844125;29;20229;-90
2022/09/03 10:44:10;;;;;;;1.27;0.98;;;;;;;24.39;52.01;93836.34;4833903;29;20274;-91
2022/09/03 10:47:03;;;;;;;1.42;1.10;;;;;;;24.66;47.42;93831.09;4846679;29;20328;-90
2022/09/03 10:50:15;;;;;;;1.67;1.00;;;;;;;24.76;48.12;93825.50;4841789;29;20224;-92
2022/09/03 10:53:08;;;;;;;1.52;1.20;;;;;;;23.27;52.58;93833.31;4848961;29;20280;-91
2022/09/03 10:56:07;;;;;;;1.23;0.80;;;;;;;23.42;53.05;93840.06;4851893;29;20224;-89
2022/09/03 10:59:06;;;;;;;2.00;1.00;;;;;;;24.30;49.85;93834.75;4856516;29;20232;-91
2022/09/03 11:02:05;;;;;;;1.05;1.00;;;;;;;25.14;48.49;93822.56;4855098;29;20229;-90
2022/09/03 11:05:04;;;;;;;1.15;0.90;;;;;;;24.63;47.88;93829.63;4853089;29;21169;-90
2022/09/03 11:08:06;;;;;;;1.35;0.90;;;;;;;26.28;46.13;93816.19;4844167;29;20247;-90
2022/09/03 11:10:59;;;;;;;0.90;0.90;;;;;;;25.09;48.25;93824.66;4845701;29;20259;-90
2022/09/03 11:13:52;;;;;;;1.63;1.10;;;;;;;25.53;46.69;93827.44;4844255;29;20226;-89
2022/09/03 11:16:45;;;;;;;0.93;0.90;;;;;;;24.33;46.97;93824.06;4853938;29;20253;-89
2022/09/03 11:19:41;;;;;;;0.93;0.75;;;;;;;24.62;46.18;93817.44;4850723;29;20221;-88
2022/09/03 11:22:29;;;;;;;1.38;0.80;;;;;;;25.05;45.88;93816.00;4844201;29;20221;-90
2022/09/03 11:25:17;;;;;;;0.95;0.95;;;;;;;24.20;50.96;93811.66;4842395;29;20231;-88
2022/09/03 11:28:22;;;;;;;1.00;0.90;;;;;;;25.08;48.58;93797.38;4861640;29;20305;-89
2022/09/03 11:31:12;;;;;;;3.15;0.80;;;;;;;25.20;45.74;93803.31;4857533;29;20324;-89
2022/09/03 11:34:27;;;;;;;1.15;1.00;;;;;;;24.29;49.98;93798.94;4850194;29;20254;-90
2022/09/03 11:37:17;;;;;;;1.20;1.10;;;;;;;25.23;50.70;93801.19;4854810;29;20244;-87
2022/09/03 11:40:07;;;;;;;1.00;1.00;;;;;;;25.70;46.33;93800.41;4830081;29;20304;-87
2022/09/03 11:42:52;;;;;;;2.13;0.98;;;;;;;25.85;45.16;93792.72;4848777;29;20226;-88
2022/09/03 11:45:37;;;;;;;0.90;0.90;;;;;;;25.61;44.89;93798.16;4849796;29;20239;-87
2022/09/03 11:48:46;;;;;;;1.13;1.00;;;;;;;25.52;44.51;93790.81;4853878;29;20338;-87
2022/09/03 11:51:36;;;;;;;1.10;1.00;;;;;;;25.62;46.22;93790.97;4847928;29;20225;-87
2022/09/03 11:54:22;;;;;;;1.73;0.80;;;;;;;24.96;45.90;93786.47;4851084;29;20235;-88
2022/09/03 11:57:25;;;;;;;1.20;1.10;;;;;;;25.24;46.43;93788.31;4862376;29;20246;-87
2022/09/03 12:00:16;;;;;;;1.08;1.00;;;;;;;25.35;48.63;93790.63;4843917;29;20312;-87
2022/09/03 12:03:03;;;;;;;1.38;1.00;;;;;;;25.37;46.63;93787.75;4849046;29;20225;-87
2022/09/03 12:06:20;;;;;;;1.38;0.90;;;;;;;25.16;46.20;93791.78;4843684;29;20228;-86
2022/09/03 12:09:12;;;;;;;1.48;1.02;;;;;;;25.21;44.72;93796.16;4852182;29;20240;-87
2022/09/03 12:12:31;;;;;;;0.80;0.80;;;;;;;25.44;45.46;93793.59;4855128;29;20734;-87
2022/09/03 12:15:53;;;;;;;1.70;1.15;;;;;;;26.07;45.54;93790.09;4846754;29;20253;-86
2022/09/03 12:18:40;;;;;;;0.80;0.80;;;;;;;26.26;43.37;93782.41;4849699;29;20232;-86
2022/09/03 12:21:24;;;;;;;0.93;0.80;;;;;;;26.00;43.25;93791.44;4851532;29;20834;-86
2022/09/03 12:24:12;;;;;;;1.15;1.10;;;;;;;26.11;43.42;93789.41;4851075;29;20226;-87
2022/09/03 12:26:57;;;;;;;1.60;1.50;;;;;;;25.74;45.02;93788.25;4831960;29;20332;-87
2022/09/03 12:29:58;;;;;;;1.13;0.80;;;;;;;25.99;45.12;93790.00;4847884;29;20264;-86
2022/09/03 12:32:46;;;;;;;3.38;1.00;;;;;;;26.38;44.45;93787.56;4858622;29;20236;-87
2022/09/03 12:35:30;;;;;;;0.73;0.73;;;;;;;26.14;41.11;93782.25;4845494;29;20217;-86
2022/09/03 12:38:22;;;;;;;2.90;0.80;;;;;;;26.98;40.65;93782.34;4860025;29;20244;-86
2022/09/03 12:41:19;;;;;;;0.90;0.90;;;;;;;26.85;40.98;93775.03;4834337;29;20397;-87
2022/09/03 12:44:03;;;;;;;1.02;0.80;;;;;;;26.39;42.13;93774.66;4849620;29;20226;-90
2022/09/03 12:46:47;;;;;;;1.33;0.70;;;;;;;26.23;39.92;93765.84;4841861;29;20226;-87
2022/09/03 12:49:43;;;;;;;0.70;0.70;;;;;;;26.00;43.05;93764.88;4843215;29;20235;-88
2022/09/03 12:52:48;;;;;;;1.30;0.85;;;;;;;25.16;42.71;93751.63;4847502;29;20229;-88
2022/09/03 12:55:42;;;;;;;0.88;0.68;;;;;;;24.99;43.75;93732.75;4847006;29;20246;-89
2022/09/03 12:58:39;;;;;;;0.80;0.80;;;;;;;25.57;44.81;93732.09;4848343;29;20248;-89
2022/09/03 13:01:30;;;;;;;0.80;0.80;;;;;;;24.78;45.56;93737.44;4847461;29;20257;-89
2022/09/03 13:04:20;;;;;;;0.80;0.80;;;;;;;25.43;44.25;93740.53;4836728;29;20285;-89
2022/09/03 13:07:11;;;;;;;1.25;0.80;;;;;;;26.57;40.67;93740.31;4831811;29;20222;-90
2022/09/03 13:10:03;;;;;;;0.70;0.70;;;;;;;25.90;41.74;93754.00;4851277;29;20298;-89
2022/09/03 13:12:47;;;;;;;0.60;0.60;;;;;;;24.96;42.92;93757.06;4823664;29;20301;-88
2022/09/03 13:15:31;;;;;;;2.95;0.60;;;;;;;24.78;44.45;93765.38;4836129;29;20233;-89
2022/09/03 13:18:41;;;;;;;0.73;0.73;;;;;;;24.79;42.32;93778.28;4863438;29;20246;-88
2022/09/03 13:21:59;;;;;;;1.25;0.80;;;;;;;24.57;41.75;93793.69;4854540;29;20277;-89
2022/09/03 13:24:51;;;;;;;0.55;0.55;;;;;;;23.91;43.23;93781.75;4861835;29;20217;-89
2022/09/03 13:28:23;;;;;;;0.75;0.75;;;;;;;23.94;43.44;93777.53;4850847;29;20217;-89
2022/09/03 13:31:41;;;;;;;0.82;0.70;;;;;;;23.83;44.17;93772.28;4860906;29;20225;-90
2022/09/03 13:34:32;;;;;;;0.73;0.73;;;;;;;23.55;44.65;93778.91;4846902;29;20224;-89
2022/09/03 13:37:36;;;;;;;0.95;0.88;;;;;;;23.23;45.87;93792.47;4845544;29;20260;-89
2022/09/03 13:40:32;;;;;;;1.05;0.80;;;;;;;22.80;47.85;93797.22;4860893;29;20268;-90
2022/09/03 13:43:44;;;;;;;0.90;0.90;;;;;;;22.64;47.87;93825.38;4870893;29;20261;-89
2022/09/03 13:46:55;;;;;;;1.30;0.95;;;;;;;22.34;50.75;93884.59;4865765;29;20213;-87
2022/09/03 13:53:10;;;;;;;2.15;1.00;;;;;;;18.49;68.96;93922.50;4853447;29;20297;-91
2022/09/03 13:56:04;;;;;;;3.58;1.10;;;;;;;17.07;81.45;93955.81;4870309;29;20211;-92
